sensor_id;sensor_type;location;lat;lon;timestamp;temperature;humidity
59162;DHT22;44942;48.936;8.260;2023-06-26T00:01:49;26.20;47.20
59162;DHT22;44942;48.936;8.260;2023-06-26T00:06:49;26.20;47.40
59162;DHT22;44942;48.936;8.260;2023-06-26T00:11:50;26.10;47.40
59162;DHT22;44942;48.936;8.260;2023-06-26T00:16:50;26.10;47.50
59162;DHT22;44942;48.936;8.260;2023-06-26T00:21:51;26.00;47.60
59162;DHT22;44942;48.936;8.260;2023-06-26T00:26:52;25.90;47.60
59162;DHT22;44942;48.936;8.260;2023-06-26T00:31:52;25.90;47.70
59162;DHT22;44942;48.936;8.260;2023-06-26T00:36:53;25.80;47.80
59162;DHT22;44942;48.936;8.260;2023-06-26T00:41:53;25.70;47.90
59162;DHT22;44942;48.936;8.260;2023-06-26T00:46:54;25.70;48.00
59162;DHT22;44942;48.936;8.260;2023-06-26T00:51:55;25.70;47.80
59162;DHT22;44942;48.936;8.260;2023-06-26T00:56:56;25.60;47.70
59162;DHT22;44942;48.936;8.260;2023-06-26T01:01:56;25.60;47.80
59162;DHT22;44942;48.936;8.260;2023-06-26T01:06:57;25.50;47.80
59162;DHT22;44942;48.936;8.260;2023-06-26T01:11:57;25.50;47.90
59162;DHT22;44942;48.936;8.260;2023-06-26T01:16:59;25.40;47.90
59162;DHT22;44942;48.936;8.260;2023-06-26T01:27:15;25.30;47.80
59162;DHT22;44942;48.936;8.260;2023-06-26T01:32:16;25.30;47.80
59162;DHT22;44942;48.936;8.260;2023-06-26T01:37:17;25.30;47.70
59162;DHT22;44942;48.936;8.260;2023-06-26T01:42:18;25.20;47.50
59162;DHT22;44942;48.936;8.260;2023-06-26T01:47:19;25.20;47.40
59162;DHT22;44942;48.936;8.260;2023-06-26T01:52:27;25.20;47.30
59162;DHT22;44942;48.936;8.260;2023-06-26T01:57:29;25.20;47.50
59162;DHT22;44942;48.936;8.260;2023-06-26T02:02:30;25.20;48.10
59162;DHT22;44942;48.936;8.260;2023-06-26T02:07:30;25.10;47.40
59162;DHT22;44942;48.936;8.260;2023-06-26T02:12:31;25.10;47.50
59162;DHT22;44942;48.936;8.260;2023-06-26T02:17:32;25.00;47.50
59162;DHT22;44942;48.936;8.260;2023-06-26T02:22:32;25.00;47.40
59162;DHT22;44942;48.936;8.260;2023-06-26T02:27:33;24.90;47.70
59162;DHT22;44942;48.936;8.260;2023-06-26T02:32:33;24.90;47.60
59162;DHT22;44942;48.936;8.260;2023-06-26T02:37:33;24.90;48.00
59162;DHT22;44942;48.936;8.260;2023-06-26T02:42:34;24.80;47.70
59162;DHT22;44942;48.936;8.260;2023-06-26T02:47:35;24.80;47.80
59162;DHT22;44942;48.936;8.260;2023-06-26T02:52:37;24.70;47.80
59162;DHT22;44942;48.936;8.260;2023-06-26T02:57:37;24.70;47.90
59162;DHT22;44942;48.936;8.260;2023-06-26T03:02:38;24.70;48.70
59162;DHT22;44942;48.936;8.260;2023-06-26T03:07:38;24.60;48.10
59162;DHT22;44942;48.936;8.260;2023-06-26T03:12:39;24.60;48.10
59162;DHT22;44942;48.936;8.260;2023-06-26T03:17:39;24.50;48.10
59162;DHT22;44942;48.936;8.260;2023-06-26T03:22:40;24.50;48.20
59162;DHT22;44942;48.936;8.260;2023-06-26T03:27:40;24.50;48.30
59162;DHT22;44942;48.936;8.260;2023-06-26T03:32:41;24.50;48.30
59162;DHT22;44942;48.936;8.260;2023-06-26T03:37:41;24.40;48.30
59162;DHT22;44942;48.936;8.260;2023-06-26T03:42:42;24.40;48.30
59162;DHT22;44942;48.936;8.260;2023-06-26T03:47:42;24.40;48.60
59162;DHT22;44942;48.936;8.260;2023-06-26T03:52:43;24.30;48.60
59162;DHT22;44942;48.936;8.260;2023-06-26T03:57:44;24.30;48.60
59162;DHT22;44942;48.936;8.260;2023-06-26T04:02:44;24.30;48.60
59162;DHT22;44942;48.936;8.260;2023-06-26T04:07:45;24.30;48.70
59162;DHT22;44942;48.936;8.260;2023-06-26T04:12:45;24.30;48.80
59162;DHT22;44942;48.936;8.260;2023-06-26T04:17:46;24.40;48.90
59162;DHT22;44942;48.936;8.260;2023-06-26T04:22:46;24.40;48.90
59162;DHT22;44942;48.936;8.260;2023-06-26T04:27:47;24.50;49.00
59162;DHT22;44942;48.936;8.260;2023-06-26T04:32:47;24.50;48.90
59162;DHT22;44942;48.936;8.260;2023-06-26T04:37:48;24.60;48.90
59162;DHT22;44942;48.936;8.260;2023-06-26T04:42:48;24.60;48.90
59162;DHT22;44942;48.936;8.260;2023-06-26T04:47:49;24.50;49.10
59162;DHT22;44942;48.936;8.260;2023-06-26T04:52:49;24.50;49.20
59162;DHT22;44942;48.936;8.260;2023-06-26T04:57:50;24.50;49.20
59162;DHT22;44942;48.936;8.260;2023-06-26T05:02:51;24.60;49.40
59162;DHT22;44942;48.936;8.260;2023-06-26T05:08:07;24.60;49.50
59162;DHT22;44942;48.936;8.260;2023-06-26T05:13:13;24.60;49.50
59162;DHT22;44942;48.936;8.260;2023-06-26T05:18:15;24.70;49.60
59162;DHT22;44942;48.936;8.260;2023-06-26T05:23:16;24.80;49.70
59162;DHT22;44942;48.936;8.260;2023-06-26T18:20:01;27.80;43.70
59162;DHT22;44942;48.936;8.260;2023-06-26T18:25:02;27.80;43.60
59162;DHT22;44942;48.936;8.260;2023-06-26T18:30:04;27.80;43.50
59162;DHT22;44942;48.936;8.260;2023-06-26T18:35:05;27.80;43.40
59162;DHT22;44942;48.936;8.260;2023-06-26T18:40:05;27.80;43.40
59162;DHT22;44942;48.936;8.260;2023-06-26T18:45:10;27.80;43.10
59162;DHT22;44942;48.936;8.260;2023-06-26T18:50:11;27.80;43.10
59162;DHT22;44942;48.936;8.260;2023-06-26T18:55:11;27.80;43.10
59162;DHT22;44942;48.936;8.260;2023-06-26T19:00:12;27.80;43.10
59162;DHT22;44942;48.936;8.260;2023-06-26T19:05:13;27.70;42.80
59162;DHT22;44942;48.936;8.260;2023-06-26T19:10:15;27.70;42.70
59162;DHT22;44942;48.936;8.260;2023-06-26T19:15:19;27.80;42.70
59162;DHT22;44942;48.936;8.260;2023-06-26T19:20:22;27.70;42.40
59162;DHT22;44942;48.936;8.260;2023-06-26T19:25:30;27.80;42.20
59162;DHT22;44942;48.936;8.260;2023-06-26T19:30:35;27.70;41.80
59162;DHT22;44942;48.936;8.260;2023-06-26T19:35:36;27.70;41.60
59162;DHT22;44942;48.936;8.260;2023-06-26T19:40:37;27.70;41.50
59162;DHT22;44942;48.936;8.260;2023-06-26T19:45:37;27.70;41.40
59162;DHT22;44942;48.936;8.260;2023-06-26T19:50:40;27.70;41.90
59162;DHT22;44942;48.936;8.260;2023-06-26T19:55:41;27.70;41.00
59162;DHT22;44942;48.936;8.260;2023-06-26T20:00:41;27.70;41.10
59162;DHT22;44942;48.936;8.260;2023-06-26T20:05:42;27.60;41.10
59162;DHT22;44942;48.936;8.260;2023-06-26T20:10:43;27.50;41.90
59162;DHT22;44942;48.936;8.260;2023-06-26T20:15:43;27.40;41.20
59162;DHT22;44942;48.936;8.260;2023-06-26T20:20:44;27.30;40.90
59162;DHT22;44942;48.936;8.260;2023-06-26T20:25:44;27.20;40.90
59162;DHT22;44942;48.936;8.260;2023-06-26T20:30:45;27.10;40.30
59162;DHT22;44942;48.936;8.260;2023-06-26T20:35:45;27.20;41.00
59162;DHT22;44942;48.936;8.260;2023-06-26T20:40:46;27.40;40.70
59162;DHT22;44942;48.936;8.260;2023-06-26T20:45:46;27.40;40.50
59162;DHT22;44942;48.936;8.260;2023-06-26T20:50:47;27.40;40.40
59162;DHT22;44942;48.936;8.260;2023-06-26T20:55:47;27.40;40.30
59162;DHT22;44942;48.936;8.260;2023-06-26T21:00:51;27.40;40.40
59162;DHT22;44942;48.936;8.260;2023-06-26T21:05:53;27.40;40.30
59162;DHT22;44942;48.936;8.260;2023-06-26T21:10:56;27.40;40.30
59162;DHT22;44942;48.936;8.260;2023-06-26T21:22:04;27.40;40.20
59162;DHT22;44942;48.936;8.260;2023-06-26T21:27:10;27.40;40.10
59162;DHT22;44942;48.936;8.260;2023-06-26T21:32:10;27.40;40.10
59162;DHT22;44942;48.936;8.260;2023-06-26T21:37:11;27.40;40.20
59162;DHT22;44942;48.936;8.260;2023-06-26T21:42:11;27.40;40.20
59162;DHT22;44942;48.936;8.260;2023-06-26T21:47:12;27.30;40.10
59162;DHT22;44942;48.936;8.260;2023-06-26T21:52:12;27.30;40.20
59162;DHT22;44942;48.936;8.260;2023-06-26T21:57:13;27.30;40.10
59162;DHT22;44942;48.936;8.260;2023-06-26T22:02:13;27.20;40.00
59162;DHT22;44942;48.936;8.260;2023-06-26T22:07:14;27.20;40.00
59162;DHT22;44942;48.936;8.260;2023-06-26T22:12:14;27.20;40.20
59162;DHT22;44942;48.936;8.260;2023-06-26T22:22:53;27.20;40.10
59162;DHT22;44942;48.936;8.260;2023-06-26T22:27:54;27.10;40.10
59162;DHT22;44942;48.936;8.260;2023-06-26T22:32:54;27.10;40.20
59162;DHT22;44942;48.936;8.260;2023-06-26T22:37:55;27.10;40.20
59162;DHT22;44942;48.936;8.260;2023-06-26T22:42:55;27.10;40.20
59162;DHT22;44942;48.936;8.260;2023-06-26T22:47:56;27.10;40.20
59162;DHT22;44942;48.936;8.260;2023-06-26T22:52:56;27.10;40.30
59162;DHT22;44942;48.936;8.260;2023-06-26T22:57:57;27.10;40.30
59162;DHT22;44942;48.936;8.260;2023-06-26T23:02:58;27.00;40.30
59162;DHT22;44942;48.936;8.260;2023-06-26T23:07:58;27.00;40.40
59162;DHT22;44942;48.936;8.260;2023-06-26T23:13:02;27.00;40.40
59162;DHT22;44942;48.936;8.260;2023-06-26T23:18:21;27.00;40.40
59162;DHT22;44942;48.936;8.260;2023-06-26T23:23:21;27.00;40.50
59162;DHT22;44942;48.936;8.260;2023-06-26T23:28:31;27.00;40.50
59162;DHT22;44942;48.936;8.260;2023-06-26T23:33:32;27.00;40.60
59162;DHT22;44942;48.936;8.260;2023-06-26T23:38:37;26.90;40.50
59162;DHT22;44942;48.936;8.260;2023-06-26T23:43:42;26.90;40.60
59162;DHT22;44942;48.936;8.260;2023-06-26T23:48:43;26.90;40.60
59162;DHT22;44942;48.936;8.260;2023-06-26T23:53:43;26.90;41.50
59162;DHT22;44942;48.936;8.260;2023-06-26T23:58:44;26.90;40.70
